Time;durP1;ratioP1;P1;durP2;ratioP2;P2;SDS_P1;SDS_P2;PMS_P1;PMS_P2;Temp;Humidity;BMP_temperature;BMP_pressure;BME280_temperature;BME280_humidity;BME280_pressure;Samples;Min_cycle;Max_cycle;Signal;HPM_P1;HPM_P2
2021/05/05 00:01:24;;;;;;;0.30;0.20;;;;;;;8.16;100.00;98981.25;5014413;28;21008;-48
2021/05/05 00:03:50;;;;;;;0.30;0.20;;;;;;;8.22;100.00;98981.91;5014373;28;20813;-48
2021/05/05 00:06:17;;;;;;;0.30;0.20;;;;;;;8.10;100.00;98979.75;5014208;28;20903;-48
2021/05/05 00:08:44;;;;;;;0.30;0.20;;;;;;;8.19;100.00;98981.13;5014307;28;20472;-48
2021/05/05 00:11:10;;;;;;;0.30;0.20;;;;;;;8.21;100.00;98976.63;5014286;28;20452;-47
2021/05/05 00:13:37;;;;;;;0.30;0.20;;;;;;;8.25;100.00;98971.19;5006731;28;20453;-48
2021/05/05 00:16:04;;;;;;;0.30;0.20;;;;;;;8.21;100.00;98974.00;5014067;28;20475;-48
2021/05/05 00:18:30;;;;;;;0.30;0.20;;;;;;;8.10;100.00;98968.28;5013375;28;20477;-48
2021/05/05 00:20:57;;;;;;;0.30;0.20;;;;;;;8.11;100.00;98975.31;5002640;28;20871;-48
2021/05/05 00:23:23;;;;;;;0.30;0.20;;;;;;;8.05;100.00;98973.75;5012501;28;20941;-48
2021/05/05 00:25:50;;;;;;;0.63;0.63;;;;;;;7.96;100.00;98969.69;5013927;28;21182;-47
2021/05/05 00:28:16;;;;;;;0.30;0.20;;;;;;;7.85;100.00;98971.91;5014080;28;20449;-48
2021/05/05 00:30:42;;;;;;;0.30;0.20;;;;;;;7.81;100.00;98966.75;5013965;28;20456;-48
2021/05/05 00:33:09;;;;;;;0.30;0.20;;;;;;;7.83;100.00;98972.88;4996616;28;20455;-49
2021/05/05 00:35:36;;;;;;;0.40;0.30;;;;;;;7.74;100.00;98979.38;5014201;28;20860;-48
2021/05/05 00:38:04;;;;;;;0.30;0.20;;;;;;;7.66;100.00;98973.50;5013874;28;20456;-48
2021/05/05 00:40:30;;;;;;;0.30;0.20;;;;;;;7.46;100.00;98981.34;5013675;28;20511;-48
2021/05/05 00:42:56;;;;;;;0.30;0.20;;;;;;;7.33;100.00;98992.34;5012285;28;20464;-48
2021/05/05 00:45:22;;;;;;;0.30;0.20;;;;;;;7.20;100.00;98983.16;5013652;28;20833;-48
2021/05/05 00:47:49;;;;;;;0.30;0.20;;;;;;;7.25;100.00;98986.47;5013802;28;20563;-48
2021/05/05 00:50:17;;;;;;;0.30;0.20;;;;;;;7.06;100.00;98973.06;5013395;28;21040;-50
2021/05/05 00:52:44;;;;;;;0.30;0.20;;;;;;;7.09;100.00;98980.88;4994138;28;20846;-48
2021/05/05 00:55:11;;;;;;;0.30;0.20;;;;;;;6.94;100.00;98976.13;5007504;28;20456;-48
2021/05/05 00:57:39;;;;;;;0.30;0.20;;;;;;;6.76;100.00;98974.16;5014478;28;20453;-48
2021/05/05 01:00:08;;;;;;;0.30;0.20;;;;;;;6.66;100.00;98970.09;5007723;28;20480;-48
2021/05/05 01:02:35;;;;;;;0.30;0.20;;;;;;;6.65;100.00;98971.00;5013752;28;20460;-47
2021/05/05 01:05:02;;;;;;;0.30;0.20;;;;;;;6.63;100.00;98975.47;5013399;28;20877;-48
2021/05/05 01:07:28;;;;;;;0.30;0.20;;;;;;;6.55;100.00;98967.81;5013319;28;20548;-49
2021/05/05 01:09:55;;;;;;;0.30;0.20;;;;;;;6.52;100.00;98965.28;5013229;28;20499;-48
2021/05/05 01:12:21;;;;;;;0.30;0.20;;;;;;;6.42;100.00;98962.06;5010898;28;20453;-48
2021/05/05 01:14:49;;;;;;;0.30;0.20;;;;;;;6.38;100.00;98963.09;5008121;28;20452;-47
2021/05/05 01:17:16;;;;;;;0.30;0.20;;;;;;;6.31;100.00;98963.38;5013223;28;20950;-48
2021/05/05 01:19:44;;;;;;;0.30;0.20;;;;;;;6.19;100.00;98960.22;5011223;28;20472;-47
2021/05/05 01:22:10;;;;;;;0.30;0.20;;;;;;;6.07;100.00;98959.72;5001964;28;20514;-48
2021/05/05 01:24:36;;;;;;;0.30;0.20;;;;;;;6.13;100.00;98960.38;5013093;28;20453;-49
2021/05/05 01:27:05;;;;;;;0.30;0.20;;;;;;;6.17;100.00;98969.09;5013320;28;20913;-48
2021/05/05 01:29:32;;;;;;;0.30;0.20;;;;;;;6.14;100.00;98958.59;5013055;28;20472;-48
2021/05/05 01:31:58;;;;;;;0.30;0.20;;;;;;;6.21;100.00;98963.66;5013042;28;20452;-48
2021/05/05 01:34:25;;;;;;;0.30;0.20;;;;;;;6.19;100.00;98960.22;4995545;28;20456;-48
2021/05/05 01:36:51;;;;;;;0.30;0.20;;;;;;;6.02;100.00;98967.78;5012882;28;20448;-48
2021/05/05 01:39:18;;;;;;;0.30;0.20;;;;;;;6.00;100.00;98964.31;5012620;28;20488;-49
2021/05/05 01:41:46;;;;;;;0.30;0.20;;;;;;;6.02;100.00;98964.28;5013269;28;20800;-48
2021/05/05 01:44:14;;;;;;;0.30;0.20;;;;;;;5.94;100.00;98964.53;5011580;28;20444;-48
2021/05/05 01:46:47;;;;;;;0.30;0.20;;;;;;;6.02;100.00;98962.50;5012750;28;20943;-47
2021/05/05 01:49:21;;;;;;;0.30;0.20;;;;;;;6.21;100.00;98954.88;5012509;28;20883;-48
2021/05/05 01:51:49;;;;;;;0.30;0.20;;;;;;;6.28;100.00;98959.03;5000269;28;20446;-48
2021/05/05 01:54:16;;;;;;;0.30;0.20;;;;;;;6.26;100.00;98957.34;5006121;28;20468;-48
2021/05/05 01:56:42;;;;;;;0.30;0.20;;;;;;;6.31;100.00;98948.41;5012986;28;20447;-48
2021/05/05 01:59:09;;;;;;;0.30;0.20;;;;;;;6.29;100.00;98960.75;4992981;28;20477;-48
2021/05/05 02:01:35;;;;;;;0.30;0.20;;;;;;;6.40;100.00;98961.25;4988784;28;20510;-49
2021/05/05 02:04:02;;;;;;;0.30;0.20;;;;;;;6.51;100.00;98961.78;4993186;28;20453;-48
2021/05/05 02:06:30;;;;;;;0.30;0.20;;;;;;;6.53;100.00;98957.28;4988807;28;20487;-48
2021/05/05 02:08:58;;;;;;;0.30;0.20;;;;;;;6.57;100.00;98962.47;5012691;28;20476;-49
2021/05/05 02:11:24;;;;;;;0.37;0.30;;;;;;;6.60;100.00;98971.16;5012493;28;20499;-48
2021/05/05 02:13:52;;;;;;;0.30;0.20;;;;;;;6.54;100.00;98968.72;5005606;28;20514;-48
2021/05/05 02:16:19;;;;;;;0.33;0.23;;;;;;;6.38;100.00;98959.59;5012556;28;20449;-49
2021/05/05 02:18:45;;;;;;;0.30;0.20;;;;;;;6.35;100.00;98967.63;5012483;28;20472;-49
2021/05/05 02:21:11;;;;;;;0.40;0.30;;;;;;;6.42;100.00;98959.44;4998929;28;20511;-49
2021/05/05 02:23:38;;;;;;;0.30;0.20;;;;;;;6.33;100.00;98969.44;4995131;28;20483;-48
2021/05/05 02:26:04;;;;;;;0.30;0.20;;;;;;;6.32;100.00;98968.59;4995163;28;20449;-48
2021/05/05 02:28:31;;;;;;;0.30;0.20;;;;;;;6.24;100.00;98963.53;5012182;28;20495;-49
2021/05/05 02:30:59;;;;;;;0.30;0.20;;;;;;;6.13;100.00;98959.53;5012224;28;20878;-48
2021/05/05 02:33:26;;;;;;;0.30;0.20;;;;;;;6.07;100.00;98957.09;5012217;28;20491;-50
2021/05/05 02:35:53;;;;;;;0.30;0.20;;;;;;;6.02;100.00;98951.09;5012188;28;20457;-49
2021/05/05 02:38:23;;;;;;;0.30;0.20;;;;;;;6.04;100.00;98950.16;5012551;28;20468;-49
2021/05/05 02:40:49;;;;;;;0.30;0.20;;;;;;;5.97;100.00;98947.75;5012267;28;20464;-49
2021/05/05 02:43:15;;;;;;;0.30;0.20;;;;;;;5.88;100.00;98948.84;5013728;28;20456;-51
2021/05/05 02:45:42;;;;;;;0.30;0.20;;;;;;;5.88;100.00;98954.97;5016033;28;20463;-48
2021/05/05 02:48:09;;;;;;;0.30;0.20;;;;;;;5.74;100.00;98957.19;5015682;28;20492;-49
2021/05/05 02:50:37;;;;;;;0.30;0.20;;;;;;;5.84;100.00;98958.63;5012493;28;20449;-48
2021/05/05 02:53:04;;;;;;;0.30;0.20;;;;;;;5.84;100.00;98948.09;5006177;28;20456;-48
2021/05/05 02:55:30;;;;;;;0.30;0.20;;;;;;;5.76;100.00;98960.66;5015599;28;20452;-48
2021/05/05 02:57:56;;;;;;;0.30;0.20;;;;;;;5.72;100.00;98955.50;5013303;28;20453;-49
2021/05/05 03:00:22;;;;;;;0.30;0.20;;;;;;;5.73;100.00;98967.78;5012596;28;20468;-49
2021/05/05 03:02:48;;;;;;;0.30;0.20;;;;;;;5.66;100.00;98959.22;5016027;28;20456;-49
2021/05/05 03:05:15;;;;;;;0.30;0.20;;;;;;;5.71;100.00;98961.69;5015502;28;20451;-49
2021/05/05 03:07:41;;;;;;;0.30;0.20;;;;;;;5.69;100.00;98969.66;5015670;28;20565;-49
2021/05/05 03:10:08;;;;;;;0.30;0.20;;;;;;;5.64;100.00;98963.66;5015323;28;20522;-50
2021/05/05 03:12:35;;;;;;;0.30;0.20;;;;;;;5.62;100.00;98969.00;5011340;28;20846;-50
2021/05/05 03:15:01;;;;;;;0.30;0.20;;;;;;;5.57;100.00;98960.34;5012638;28;20845;-50
2021/05/05 03:17:27;;;;;;;0.30;0.20;;;;;;;5.76;100.00;98970.34;5015154;28;20942;-50
2021/05/05 03:19:54;;;;;;;0.30;0.10;;;;;;;5.86;100.00;98963.84;5011504;28;20509;-49
2021/05/05 03:22:20;;;;;;;0.30;0.20;;;;;;;5.88;100.00;98970.81;5005973;28;20457;-49
2021/05/05 03:24:46;;;;;;;0.30;0.20;;;;;;;5.79;100.00;98972.88;5015284;28;20480;-50
2021/05/05 03:27:13;;;;;;;0.30;0.20;;;;;;;5.91;100.00;98968.13;5015118;28;20492;-50
2021/05/05 03:29:40;;;;;;;0.30;0.20;;;;;;;5.87;100.00;98978.75;4997947;28;20476;-53
2021/05/05 03:32:06;;;;;;;0.30;0.20;;;;;;;6.13;100.00;98973.56;5014989;28;20452;-53
2021/05/05 03:34:32;;;;;;;0.30;0.20;;;;;;;6.12;99.76;98977.13;5015205;28;20460;-53
2021/05/05 03:36:58;;;;;;;0.30;0.20;;;;;;;6.19;98.43;98973.41;5015221;28;20491;-53
2021/05/05 03:39:24;;;;;;;0.30;0.20;;;;;;;6.29;98.10;98987.13;5015131;28;20568;-52
2021/05/05 03:41:50;;;;;;;0.30;0.20;;;;;;;6.15;98.06;98976.16;4997605;28;20926;-53
2021/05/05 03:44:16;;;;;;;26.27;1.57;;;;;;;6.15;98.11;98981.44;5013621;28;20449;-52
2021/05/05 03:46:43;;;;;;;0.30;0.20;;;;;;;6.27;98.46;98982.81;5014960;28;20853;-52
2021/05/05 03:49:09;;;;;;;0.30;0.20;;;;;;;6.26;97.15;98983.75;5015424;28;20465;-52
2021/05/05 03:51:35;;;;;;;0.30;0.20;;;;;;;6.26;97.13;98987.25;5003769;28;20461;-52
2021/05/05 03:54:01;;;;;;;0.30;0.20;;;;;;;6.28;95.71;98989.81;5012733;28;20456;-52
2021/05/05 03:56:27;;;;;;;0.30;0.20;;;;;;;6.40;95.61;98995.56;5020446;28;20493;-52
2021/05/05 03:58:54;;;;;;;0.30;0.20;;;;;;;6.37;95.85;98992.19;5003331;28;20523;-52
2021/05/05 04:01:20;;;;;;;0.30;0.20;;;;;;;6.27;95.84;98996.88;5014847;28;20452;-52
2021/05/05 04:03:46;;;;;;;0.30;0.20;;;;;;;6.21;96.48;99003.22;5014619;28;20433;-52
2021/05/05 04:06:12;;;;;;;0.30;0.20;;;;;;;6.24;96.53;98992.56;5014598;28;20452;-53
2021/05/05 04:08:38;;;;;;;0.30;0.20;;;;;;;6.16;95.04;98999.84;5014398;28;20542;-53
2021/05/05 04:11:05;;;;;;;0.30;0.20;;;;;;;6.11;96.77;99007.06;5014379;28;20503;-53
2021/05/05 04:13:32;;;;;;;0.30;0.20;;;;;;;5.94;97.57;99006.72;4989797;28;20534;-52
2021/05/05 04:16:16;;;;;;;0.30;0.20;;;;;;;5.92;98.51;99008.53;5014296;28;20507;-52
2021/05/05 04:19:02;;;;;;;0.30;0.20;;;;;;;6.06;97.14;99010.75;5014238;28;20467;-52
2021/05/05 04:21:46;;;;;;;0.30;0.20;;;;;;;6.10;96.86;99015.03;5000834;28;20463;-52
2021/05/05 04:24:30;;;;;;;0.30;0.20;;;;;;;6.07;96.50;99012.50;5014081;28;20480;-52
2021/05/05 04:26:56;;;;;;;0.30;0.20;;;;;;;6.09;96.98;99022.06;5014089;28;20491;-52
2021/05/05 04:29:22;;;;;;;0.30;0.13;;;;;;;6.19;96.20;99023.53;5013934;28;20524;-52
2021/05/05 04:31:51;;;;;;;0.30;0.20;;;;;;;6.21;96.12;99026.97;5013986;28;20452;-52
2021/05/05 04:34:20;;;;;;;0.30;0.20;;;;;;;6.21;97.54;99032.25;5013801;28;20487;-52
2021/05/05 04:36:47;;;;;;;0.40;0.20;;;;;;;6.23;96.79;99033.06;5014272;28;20853;-52
2021/05/05 04:39:13;;;;;;;0.30;0.20;;;;;;;6.36;96.97;99036.19;4996320;28;21179;-54
2021/05/05 04:41:39;;;;;;;0.30;0.20;;;;;;;6.24;97.06;99040.06;5013819;28;20452;-52
2021/05/05 04:44:06;;;;;;;0.30;0.20;;;;;;;6.61;96.20;99041.53;5013215;28;20476;-52
2021/05/05 04:46:32;;;;;;;0.30;0.20;;;;;;;7.40;92.82;99043.19;5014099;28;20488;-52
2021/05/05 04:48:59;;;;;;;0.30;0.20;;;;;;;8.22;90.18;99044.53;5013181;28;20868;-52
2021/05/05 04:51:25;;;;;;;0.30;0.20;;;;;;;9.01;86.06;99043.97;5004445;28;20462;-53
2021/05/05 04:53:51;;;;;;;0.30;0.10;;;;;;;9.13;84.75;99047.91;5010142;28;20461;-53
2021/05/05 04:56:18;;;;;;;0.30;0.20;;;;;;;9.00;84.96;99052.84;5000762;28;20820;-53
2021/05/05 04:58:44;;;;;;;0.30;0.20;;;;;;;8.78;85.60;99058.22;5003443;28;20519;-53
2021/05/05 05:01:10;;;;;;;0.30;0.20;;;;;;;8.41;87.15;99063.25;5013671;28;20472;-53
2021/05/05 05:03:36;;;;;;;0.30;0.20;;;;;;;8.50;87.64;99060.25;5013116;28;20463;-53
2021/05/05 05:06:02;;;;;;;0.30;0.20;;;;;;;8.27;87.58;99063.75;5013189;28;20526;-52
2021/05/05 05:08:28;;;;;;;0.30;0.20;;;;;;;8.66;86.96;99071.94;5013014;28;21093;-53
2021/05/05 05:10:55;;;;;;;0.30;0.20;;;;;;;9.10;85.34;99078.06;5013413;28;20452;-53
2021/05/05 05:13:21;;;;;;;0.30;0.20;;;;;;;9.74;81.43;99082.38;5005966;28;20828;-53
2021/05/05 05:15:47;;;;;;;1.40;1.30;;;;;;;10.06;80.19;99075.59;5013236;28;20459;-53
2021/05/05 05:18:13;;;;;;;0.30;0.20;;;;;;;10.17;79.94;99083.06;5012909;28;20866;-53
2021/05/05 05:20:40;;;;;;;0.30;0.20;;;;;;;10.42;79.33;99085.47;5003520;28;20504;-53
2021/05/05 05:23:06;;;;;;;0.30;0.20;;;;;;;10.83;77.08;99083.50;5009888;28;20451;-53
2021/05/05 05:25:33;;;;;;;0.30;0.20;;;;;;;10.67;77.74;99078.88;5013184;28;20895;-53
2021/05/05 05:27:59;;;;;;;0.30;0.20;;;;;;;10.81;75.95;99085.34;5012980;28;20495;-53
2021/05/05 05:30:25;;;;;;;0.30;0.20;;;;;;;11.04;75.40;99092.19;5012963;28;20472;-53
2021/05/05 05:32:53;;;;;;;0.30;0.20;;;;;;;11.33;74.79;99091.56;5012844;28;20457;-53
2021/05/05 05:35:19;;;;;;;0.30;0.20;;;;;;;11.42;74.85;99080.47;5013109;28;20449;-50
2021/05/05 05:37:45;;;;;;;0.30;0.20;;;;;;;11.28;74.90;99083.84;5012810;28;20452;-51
2021/05/05 05:40:13;;;;;;;0.30;0.20;;;;;;;11.56;75.11;99088.59;5012808;28;20550;-53
2021/05/05 05:42:39;;;;;;;0.30;0.20;;;;;;;12.02;72.88;99086.19;5011999;28;20506;-53
2021/05/05 05:45:06;;;;;;;0.30;0.20;;;;;;;11.25;74.26;99096.44;4995315;28;20460;-53
2021/05/05 05:47:35;;;;;;;0.30;0.20;;;;;;;11.82;73.67;99105.06;5012802;28;20492;-53
2021/05/05 05:50:02;;;;;;;0.30;0.20;;;;;;;12.25;72.20;99105.41;4995106;28;20522;-53
2021/05/05 05:52:28;;;;;;;0.30;0.20;;;;;;;11.76;73.41;99100.84;4999833;28;20465;-53
2021/05/05 05:54:54;;;;;;;0.30;0.20;;;;;;;11.91;73.26;99109.88;5012869;28;20453;-52
2021/05/05 05:57:20;;;;;;;0.30;0.20;;;;;;;11.98;74.09;99113.09;5015405;28;20520;-50
2021/05/05 05:59:47;;;;;;;0.30;0.20;;;;;;;11.74;72.29;99115.19;5004583;28;20483;-50
2021/05/05 06:02:13;;;;;;;0.30;0.20;;;;;;;12.08;72.72;99109.00;5012915;28;20452;-50
2021/05/05 06:04:40;;;;;;;0.30;0.20;;;;;;;12.09;71.83;99116.91;5012794;28;20452;-50
2021/05/05 06:07:06;;;;;;;0.30;0.20;;;;;;;11.83;72.72;99120.09;4994974;28;20492;-50
2021/05/05 06:09:32;;;;;;;0.30;0.20;;;;;;;11.83;73.44;99123.59;5012953;28;20472;-50
2021/05/05 06:11:58;;;;;;;0.30;0.20;;;;;;;11.67;72.64;99130.63;5012670;28;20464;-50
2021/05/05 06:14:24;;;;;;;0.30;0.20;;;;;;;11.33;74.27;99120.84;5005201;28;20453;-50
2021/05/05 06:16:51;;;;;;;0.30;0.20;;;;;;;11.32;74.83;99129.75;5012741;28;20543;-50
2021/05/05 06:19:17;;;;;;;0.30;0.20;;;;;;;11.41;73.50;99133.78;5016471;28;20480;-50
2021/05/05 06:21:43;;;;;;;1.17;0.93;;;;;;;11.19;75.17;99131.31;5003189;28;20452;-50
2021/05/05 06:24:09;;;;;;;0.30;0.20;;;;;;;10.93;75.98;99140.56;5016568;28;20452;-50
2021/05/05 06:26:35;;;;;;;0.30;0.20;;;;;;;10.77;76.07;99139.59;5016308;28;20492;-50
2021/05/05 06:29:02;;;;;;;0.30;0.20;;;;;;;10.71;76.60;99132.78;4998845;28;20500;-50
2021/05/05 06:31:29;;;;;;;0.30;0.20;;;;;;;10.58;77.01;99127.19;5016365;28;20452;-53
2021/05/05 06:33:55;;;;;;;0.30;0.20;;;;;;;10.65;77.14;99135.72;5016560;28;20448;-53
2021/05/05 06:36:22;;;;;;;0.30;0.20;;;;;;;11.05;76.93;99142.63;5016233;28;20448;-52
2021/05/05 06:38:48;;;;;;;0.30;0.20;;;;;;;10.91;76.44;99161.06;5016123;28;20499;-53
2021/05/05 06:41:14;;;;;;;0.40;0.30;;;;;;;11.16;76.95;99150.09;5016374;28;20448;-53
2021/05/05 06:43:40;;;;;;;0.30;0.20;;;;;;;11.19;76.04;99148.13;5014777;28;20464;-51
2021/05/05 06:46:07;;;;;;;0.30;0.20;;;;;;;10.76;76.88;99157.34;5015893;28;20475;-51
2021/05/05 06:48:33;;;;;;;0.30;0.20;;;;;;;10.68;77.56;99160.34;5015783;28;20925;-51
2021/05/05 06:50:59;;;;;;;0.30;0.20;;;;;;;10.25;78.76;99152.63;5010106;28;20455;-51
2021/05/05 06:53:25;;;;;;;0.30;0.20;;;;;;;10.46;79.60;99161.44;5008899;28;20460;-51
2021/05/05 06:55:52;;;;;;;0.40;0.20;;;;;;;10.88;79.07;99159.41;5016467;28;20444;-51
2021/05/05 06:58:19;;;;;;;0.30;0.20;;;;;;;10.94;78.62;99151.13;5011208;28;20454;-51
2021/05/05 07:00:46;;;;;;;0.30;0.20;;;;;;;10.80;77.88;99153.59;5015229;28;20980;-51
2021/05/05 07:03:12;;;;;;;0.30;0.20;;;;;;;10.88;78.27;99151.44;5015804;28;20502;-51
2021/05/05 07:05:39;;;;;;;0.30;0.20;;;;;;;10.67;79.15;99150.66;5015618;28;20456;-51
2021/05/05 07:08:05;;;;;;;0.30;0.20;;;;;;;10.47;79.84;99141.91;5015620;28;20503;-50
2021/05/05 07:10:32;;;;;;;0.30;0.20;;;;;;;10.39;79.83;99148.41;4997880;28;20469;-51
2021/05/05 07:12:58;;;;;;;0.30;0.20;;;;;;;10.52;80.31;99146.06;5008091;28;20453;-51
2021/05/05 07:15:24;;;;;;;0.30;0.20;;;;;;;10.59;79.22;99150.16;5015362;28;20452;-51
2021/05/05 07:17:52;;;;;;;0.30;0.20;;;;;;;10.87;79.92;99155.03;5015497;28;20523;-51
2021/05/05 07:20:18;;;;;;;0.30;0.20;;;;;;;11.09;78.47;99146.00;5008422;28;20469;-51
2021/05/05 07:22:44;;;;;;;0.30;0.20;;;;;;;11.18;78.53;99150.88;5008854;28;20448;-51
2021/05/05 07:25:11;;;;;;;0.30;0.20;;;;;;;11.34;78.34;99143.84;5015653;28;20464;-51
2021/05/05 07:27:38;;;;;;;0.30;0.20;;;;;;;11.73;74.85;99140.97;5014814;28;20515;-51
2021/05/05 07:30:07;;;;;;;0.30;0.20;;;;;;;11.54;75.70;99138.38;4997284;28;20884;-51
2021/05/05 07:32:33;;;;;;;0.30;0.20;;;;;;;11.74;75.73;99142.69;5015250;28;20503;-51
2021/05/05 07:35:01;;;;;;;0.30;0.20;;;;;;;11.59;76.38;99143.47;5015143;28;20457;-51
2021/05/05 07:46:06;;;;;;;0.30;0.20;;;;;;;11.17;75.72;99149.16;5014936;28;20448;-51
2021/05/05 07:50:59;;;;;;;0.30;0.20;;;;;;;11.08;74.99;99157.56;5009256;28;20826;-51
2021/05/05 07:53:24;;;;;;;0.30;0.20;;;;;;;11.17;75.83;99157.13;5004749;28;20452;-51
2021/05/05 07:55:51;;;;;;;0.30;0.20;;;;;;;11.21;76.38;99156.03;5004885;28;20205;-51
2021/05/05 07:58:17;;;;;;;0.30;0.20;;;;;;;11.42;75.71;99159.44;5009632;28;20201;-51
2021/05/05 08:00:43;;;;;;;0.30;0.20;;;;;;;11.40;76.04;99156.84;5014092;28;20480;-51
2021/05/05 08:03:10;;;;;;;0.30;0.20;;;;;;;11.53;74.92;99163.28;5014552;28;20461;-51
2021/05/05 08:05:36;;;;;;;0.30;0.20;;;;;;;11.67;72.65;99159.91;5014419;28;20502;-52
2021/05/05 08:08:03;;;;;;;0.30;0.20;;;;;;;11.32;72.51;99160.81;5014445;28;20492;-51
2021/05/05 08:10:29;;;;;;;0.40;0.30;;;;;;;11.56;72.92;99164.91;5014286;28;20472;-51
2021/05/05 08:12:55;;;;;;;0.30;0.20;;;;;;;11.48;72.06;99161.78;5007688;28;20453;-51
2021/05/05 08:15:22;;;;;;;0.30;0.20;;;;;;;11.65;72.56;99169.78;5013369;28;20839;-51
2021/05/05 08:17:48;;;;;;;0.30;0.20;;;;;;;11.97;72.04;99164.63;4996997;28;20510;-52
2021/05/05 08:20:15;;;;;;;0.30;0.20;;;;;;;11.86;71.99;99167.84;5014507;28;20468;-51
2021/05/05 08:22:41;;;;;;;0.30;0.20;;;;;;;11.74;71.88;99156.00;5001883;28;20453;-51
2021/05/05 08:25:08;;;;;;;0.30;0.20;;;;;;;11.83;70.87;99162.69;5013620;28;20454;-51
2021/05/05 08:27:35;;;;;;;0.30;0.20;;;;;;;11.69;71.63;99165.16;5014053;28;20488;-51
2021/05/05 08:30:02;;;;;;;0.30;0.20;;;;;;;11.48;70.11;99175.09;5013830;28;20500;-51
2021/05/05 08:32:28;;;;;;;0.30;0.20;;;;;;;11.11;71.68;99168.94;5014214;28;20567;-51
2021/05/05 08:34:54;;;;;;;0.30;0.20;;;;;;;11.46;70.67;99172.50;5014002;28;20449;-51
2021/05/05 08:37:21;;;;;;;0.30;0.20;;;;;;;11.23;69.51;99167.44;5013901;28;20444;-51
2021/05/05 08:39:47;;;;;;;0.30;0.20;;;;;;;11.42;68.27;99176.25;5013413;28;20542;-51
2021/05/05 08:42:15;;;;;;;0.30;0.20;;;;;;;11.33;68.48;99187.34;5012500;28;20503;-51
2021/05/05 08:44:47;;;;;;;0.30;0.20;;;;;;;10.67;77.02;99200.28;4994357;28;20481;-51
2021/05/05 08:47:16;;;;;;;0.30;0.20;;;;;;;10.46;81.68;99207.47;5007684;28;20534;-52
2021/05/05 08:49:44;;;;;;;0.30;0.20;;;;;;;10.13;82.57;99193.84;5013513;28;20556;-52
2021/05/05 08:52:10;;;;;;;0.30;0.20;;;;;;;10.27;81.74;99199.44;5000667;28;20516;-51
2021/05/05 08:54:37;;;;;;;0.30;0.20;;;;;;;10.61;82.32;99192.59;5013525;28;20452;-51
2021/05/05 08:57:04;;;;;;;0.30;0.20;;;;;;;10.61;80.53;99198.78;5017709;28;20458;-51
2021/05/05 08:59:32;;;;;;;0.30;0.20;;;;;;;10.88;80.27;99214.38;5003712;28;20469;-52
2021/05/05 09:02:00;;;;;;;0.30;0.20;;;;;;;10.77;78.03;99211.34;5013659;28;20448;-51
2021/05/05 09:04:26;;;;;;;0.30;0.20;;;;;;;11.06;76.43;99205.50;5013418;28;20468;-51
2021/05/05 09:06:56;;;;;;;0.30;0.20;;;;;;;11.23;77.22;99210.88;4995860;28;21067;-49
2021/05/05 09:09:44;;;;;;;0.30;0.20;;;;;;;11.50;77.42;99203.31;5013206;28;20551;-50
2021/05/05 09:12:16;;;;;;;0.30;0.20;;;;;;;11.76;76.05;99214.47;4994800;28;20452;-50
2021/05/05 09:15:04;;;;;;;0.30;0.20;;;;;;;11.95;73.20;99225.09;5013325;28;20445;-49
2021/05/05 09:17:33;;;;;;;0.30;0.20;;;;;;;11.78;72.40;99224.09;5013432;28;20445;-49
2021/05/05 09:20:05;;;;;;;0.30;0.20;;;;;;;12.32;74.23;99224.03;5008251;28;20477;-49
2021/05/05 09:22:54;;;;;;;0.30;0.20;;;;;;;12.18;70.32;99234.53;5005829;28;20477;-50
2021/05/05 09:25:24;;;;;;;0.30;0.20;;;;;;;12.05;69.96;99235.19;4993642;28;20519;-49
2021/05/05 09:28:14;;;;;;;0.30;0.20;;;;;;;12.17;70.63;99228.34;5009301;28;20484;-50
2021/05/05 09:30:46;;;;;;;0.30;0.20;;;;;;;11.96;71.16;99246.31;5013206;28;20445;-50
2021/05/05 09:33:22;;;;;;;0.30;0.20;;;;;;;12.11;71.41;99250.00;4993807;28;20460;-49
2021/05/05 09:35:53;;;;;;;0.30;0.20;;;;;;;12.04;71.64;99244.09;5008072;28;20503;-49
2021/05/05 09:38:19;;;;;;;0.30;0.20;;;;;;;12.48;70.82;99240.09;5013033;28;20445;-50
2021/05/05 09:40:57;;;;;;;0.30;0.20;;;;;;;12.70;68.87;99245.97;5012662;28;20461;-50
2021/05/05 09:43:24;;;;;;;0.30;0.20;;;;;;;12.70;67.83;99235.31;5002439;28;20460;-50
2021/05/05 09:45:50;;;;;;;0.30;0.20;;;;;;;13.20;67.10;99240.56;5010672;28;20945;-50
2021/05/05 09:48:24;;;;;;;0.30;0.20;;;;;;;13.52;66.94;99253.88;5012745;28;20578;-50
2021/05/05 09:51:02;;;;;;;0.30;0.20;;;;;;;13.47;65.06;99258.63;5007424;28;20453;-49
2021/05/05 09:53:32;;;;;;;0.30;0.20;;;;;;;12.66;68.70;99263.94;4988960;28;20452;-49
2021/05/05 09:55:59;;;;;;;0.30;0.20;;;;;;;12.03;73.34;99286.81;4996914;28;20453;-49
2021/05/05 09:58:26;;;;;;;0.30;0.20;;;;;;;11.44;74.29;99287.94;5005738;28;20446;-50
2021/05/05 10:01:05;;;;;;;0.30;0.20;;;;;;;10.85;74.01;99292.47;5012895;28;20452;-51
2021/05/05 10:03:41;;;;;;;0.30;0.20;;;;;;;10.58;75.00;99283.97;5012585;28;20456;-51
2021/05/05 10:06:33;;;;;;;0.30;0.20;;;;;;;10.24;76.62;99287.22;5012937;28;20506;-50
2021/05/05 10:09:05;;;;;;;0.30;0.20;;;;;;;10.14;78.37;99291.16;4993253;28;20903;-49
2021/05/05 10:11:43;;;;;;;0.30;0.20;;;;;;;9.88;80.49;99288.78;5007822;28;20449;-50
2021/05/05 10:14:10;;;;;;;0.30;0.20;;;;;;;10.17;80.09;99295.50;5012732;28;20445;-49
2021/05/05 10:16:40;;;;;;;0.30;0.20;;;;;;;10.28;79.96;99302.13;5012549;28;20552;-50
2021/05/05 10:19:13;;;;;;;0.30;0.20;;;;;;;10.37;80.15;99303.50;5012790;28;20464;-49
2021/05/05 10:21:51;;;;;;;0.30;0.20;;;;;;;10.57;80.36;99322.09;5012804;28;20449;-49
2021/05/05 10:24:18;;;;;;;0.30;0.20;;;;;;;10.07;84.01;99319.78;5012696;28;20483;-50
2021/05/05 10:26:46;;;;;;;0.30;0.20;;;;;;;10.27;84.58;99326.94;5012337;28;20938;-49
2021/05/05 10:29:13;;;;;;;0.30;0.20;;;;;;;9.94;86.02;99331.84;5012359;28;20476;-49
2021/05/05 10:31:41;;;;;;;0.30;0.20;;;;;;;10.28;87.16;99322.47;5012323;28;20492;-49
2021/05/05 10:34:20;;;;;;;0.30;0.20;;;;;;;10.76;87.22;99321.28;5012034;28;20970;-49
2021/05/05 10:36:52;;;;;;;0.30;0.20;;;;;;;11.23;86.39;99332.38;5012188;28;20448;-50
2021/05/05 10:39:18;;;;;;;0.30;0.20;;;;;;;11.62;77.59;99304.81;5012059;28;21008;-49
2021/05/05 10:41:59;;;;;;;0.30;0.20;;;;;;;11.83;79.24;99309.13;5012087;28;20499;-49
2021/05/05 10:44:49;;;;;;;0.40;0.20;;;;;;;12.24;77.86;99316.84;5011665;28;20452;-49
2021/05/05 10:47:18;;;;;;;0.30;0.20;;;;;;;12.64;70.36;99304.97;5011900;28;20945;-49
2021/05/05 10:50:05;;;;;;;0.30;0.20;;;;;;;12.68;67.42;99309.19;5011847;28;21132;-50
2021/05/05 10:52:34;;;;;;;0.30;0.20;;;;;;;12.80;68.54;99311.22;5012162;28;20448;-49
2021/05/05 10:55:04;;;;;;;0.30;0.20;;;;;;;13.04;66.86;99306.38;5012264;28;20456;-49
2021/05/05 10:57:31;;;;;;;0.30;0.20;;;;;;;13.42;68.05;99298.06;5013310;28;20456;-50
2021/05/05 10:59:57;;;;;;;0.30;0.20;;;;;;;13.37;66.39;99311.69;4993268;28;20469;-49
2021/05/05 11:02:46;;;;;;;0.30;0.20;;;;;;;12.78;68.14;99307.78;5012098;28;20472;-50
2021/05/05 11:05:14;;;;;;;0.30;0.20;;;;;;;12.80;67.42;99326.34;5016223;28;20455;-50
2021/05/05 11:07:54;;;;;;;0.40;0.40;;;;;;;12.39;72.89;99343.56;5015942;28;20483;-49
2021/05/05 11:10:36;;;;;;;0.30;0.20;;;;;;;11.32;75.13;99342.59;5015556;28;20522;-49
2021/05/05 11:13:25;;;;;;;0.30;0.20;;;;;;;11.64;72.05;99332.22;5008260;28;21014;-49
2021/05/05 11:15:51;;;;;;;0.30;0.20;;;;;;;11.78;71.03;99332.41;5015587;28;20853;-49
2021/05/05 11:18:27;;;;;;;0.30;0.20;;;;;;;12.43;70.24;99322.94;5015481;28;20479;-52
2021/05/05 11:20:53;;;;;;;0.30;0.20;;;;;;;13.07;65.44;99324.88;5004423;28;20453;-51
2021/05/05 11:26:16;;;;;;;0.30;0.20;;;;;;;13.43;63.55;99313.13;5015376;28;20535;-52
2021/05/05 11:29:10;;;;;;;0.30;0.20;;;;;;;12.82;62.79;99321.78;5014998;28;20504;-52
2021/05/05 11:34:21;;;;;;;0.30;0.20;;;;;;;11.83;67.48;99400.53;5015221;28;20455;-51
2021/05/05 11:37:24;;;;;;;0.30;0.20;;;;;;;10.36;78.69;99426.63;5016829;28;20476;-52
2021/05/05 11:40:01;;;;;;;0.30;0.20;;;;;;;9.76;83.85;99439.63;4995728;28;20485;-51
2021/05/05 11:42:29;;;;;;;0.30;0.20;;;;;;;9.44;83.89;99447.94;5009620;28;20802;-51
2021/05/05 11:45:10;;;;;;;0.30;0.20;;;;;;;9.23;86.83;99406.31;4999289;28;20444;-51
2021/05/05 11:47:41;;;;;;;0.30;0.20;;;;;;;9.40;84.63;99411.84;5015047;28;20492;-50
2021/05/05 11:50:20;;;;;;;0.30;0.20;;;;;;;9.38;87.43;99405.75;5015157;28;20548;-49
2021/05/05 11:52:52;;;;;;;0.30;0.20;;;;;;;9.58;85.24;99405.81;4995754;28;20445;-51
2021/05/05 11:55:22;;;;;;;0.30;0.20;;;;;;;9.71;88.08;99415.03;5009918;28;20523;-51
2021/05/05 11:57:51;;;;;;;0.30;0.20;;;;;;;9.97;86.13;99423.75;4997170;28;20449;-51